sensor_id;sensor_type;location;lat;lon;timestamp;temperature;humidity
6788;DHT22;3431;47.966;10.268;2023-09-18T00:00:20;16.40;99.90
6788;DHT22;3431;47.966;10.268;2023-09-18T00:00:42;16.40;99.90
6788;DHT22;3431;47.966;10.268;2023-09-18T00:01:04;16.30;99.90
6788;DHT22;3431;47.966;10.268;2023-09-18T00:01:26;16.30;99.90
6788;DHT22;3431;47.966;10.268;2023-09-18T00:01:49;16.30;99.90
6788;DHT22;3431;47.966;10.268;2023-09-18T00:02:11;16.30;99.90
6788;DHT22;3431;47.966;10.268;2023-09-18T00:02:32;16.30;99.90
6788;DHT22;3431;47.966;10.268;2023-09-18T00:02:54;16.30;99.90
6788;DHT22;3431;47.966;10.268;2023-09-18T00:03:16;16.30;99.90
6788;DHT22;3431;47.966;10.268;2023-09-18T00:03:39;16.30;99.90
6788;DHT22;3431;47.966;10.268;2023-09-18T00:04:00;16.30;99.90
6788;DHT22;3431;47.966;10.268;2023-09-18T00:04:22;16.30;99.90
6788;DHT22;3431;47.966;10.268;2023-09-18T00:04:43;16.30;99.90
6788;DHT22;3431;47.966;10.268;2023-09-18T00:05:05;16.30;99.90
6788;DHT22;3431;47.966;10.268;2023-09-18T00:05:27;16.30;99.90
6788;DHT22;3431;47.966;10.268;2023-09-18T00:05:50;16.30;99.90
6788;DHT22;3431;47.966;10.268;2023-09-18T00:06:11;16.30;99.90
6788;DHT22;3431;47.966;10.268;2023-09-18T00:06:33;16.30;99.90
6788;DHT22;3431;47.966;10.268;2023-09-18T00:06:55;16.30;99.90
6788;DHT22;3431;47.966;10.268;2023-09-18T00:07:16;16.30;99.90
6788;DHT22;3431;47.966;10.268;2023-09-18T00:07:38;16.30;99.90
6788;DHT22;3431;47.966;10.268;2023-09-18T00:08:00;16.30;99.90
6788;DHT22;3431;47.966;10.268;2023-09-18T00:08:24;16.30;99.90
6788;DHT22;3431;47.966;10.268;2023-09-18T00:08:45;16.30;99.90
6788;DHT22;3431;47.966;10.268;2023-09-18T00:09:07;16.30;99.90
6788;DHT22;3431;47.966;10.268;2023-09-18T00:09:32;16.30;99.90
6788;DHT22;3431;47.966;10.268;2023-09-18T00:09:54;16.30;99.90
6788;DHT22;3431;47.966;10.268;2023-09-18T00:10:15;16.30;99.90
6788;DHT22;3431;47.966;10.268;2023-09-18T00:10:37;16.30;99.90
6788;DHT22;3431;47.966;10.268;2023-09-18T00:10:58;16.30;99.90
6788;DHT22;3431;47.966;10.268;2023-09-18T00:11:21;16.30;99.90
6788;DHT22;3431;47.966;10.268;2023-09-18T00:11:43;16.40;99.90
6788;DHT22;3431;47.966;10.268;2023-09-18T00:12:06;16.40;99.90
6788;DHT22;3431;47.966;10.268;2023-09-18T00:12:28;16.40;99.90
6788;DHT22;3431;47.966;10.268;2023-09-18T00:12:49;16.40;99.90
6788;DHT22;3431;47.966;10.268;2023-09-18T00:13:11;16.40;99.90
6788;DHT22;3431;47.966;10.268;2023-09-18T00:13:32;16.40;99.90
6788;DHT22;3431;47.966;10.268;2023-09-18T00:13:55;16.40;99.90
6788;DHT22;3431;47.966;10.268;2023-09-18T00:14:16;16.40;99.90
6788;DHT22;3431;47.966;10.268;2023-09-18T00:14:38;16.40;99.90
6788;DHT22;3431;47.966;10.268;2023-09-18T00:14:59;16.40;99.90
6788;DHT22;3431;47.966;10.268;2023-09-18T00:15:21;16.40;99.90
6788;DHT22;3431;47.966;10.268;2023-09-18T00:15:42;16.50;99.90
6788;DHT22;3431;47.966;10.268;2023-09-18T00:16:05;16.40;99.90
6788;DHT22;3431;47.966;10.268;2023-09-18T00:16:27;16.50;99.90
6788;DHT22;3431;47.966;10.268;2023-09-18T00:16:48;16.50;99.90
6788;DHT22;3431;47.966;10.268;2023-09-18T00:17:10;16.50;99.90
6788;DHT22;3431;47.966;10.268;2023-09-18T00:17:32;16.50;99.90
6788;DHT22;3431;47.966;10.268;2023-09-18T00:17:54;16.50;99.90
6788;DHT22;3431;47.966;10.268;2023-09-18T00:18:16;16.50;99.90
6788;DHT22;3431;47.966;10.268;2023-09-18T00:18:38;16.50;99.90
6788;DHT22;3431;47.966;10.268;2023-09-18T00:19:00;16.50;99.90
6788;DHT22;3431;47.966;10.268;2023-09-18T00:19:22;16.50;99.90
6788;DHT22;3431;47.966;10.268;2023-09-18T00:19:45;16.50;99.90
6788;DHT22;3431;47.966;10.268;2023-09-18T00:20:07;16.50;99.90
6788;DHT22;3431;47.966;10.268;2023-09-18T00:20:30;16.50;99.90
6788;DHT22;3431;47.966;10.268;2023-09-18T00:20:52;16.50;99.90
6788;DHT22;3431;47.966;10.268;2023-09-18T00:21:13;16.50;99.90
6788;DHT22;3431;47.966;10.268;2023-09-18T00:21:36;16.50;99.90
6788;DHT22;3431;47.966;10.268;2023-09-18T00:21:57;16.60;99.90
6788;DHT22;3431;47.966;10.268;2023-09-18T00:22:22;16.60;99.90
6788;DHT22;3431;47.966;10.268;2023-09-18T00:22:45;16.60;99.90
6788;DHT22;3431;47.966;10.268;2023-09-18T00:23:08;16.60;99.90
6788;DHT22;3431;47.966;10.268;2023-09-18T00:23:30;16.60;99.90
6788;DHT22;3431;47.966;10.268;2023-09-18T00:23:54;16.60;99.90
6788;DHT22;3431;47.966;10.268;2023-09-18T00:24:15;16.60;99.90
6788;DHT22;3431;47.966;10.268;2023-09-18T00:24:38;16.60;99.90
6788;DHT22;3431;47.966;10.268;2023-09-18T00:25:00;16.60;99.90
6788;DHT22;3431;47.966;10.268;2023-09-18T00:25:22;16.70;99.90
6788;DHT22;3431;47.966;10.268;2023-09-18T00:25:44;16.70;99.90
6788;DHT22;3431;47.966;10.268;2023-09-18T00:26:05;16.70;99.90
6788;DHT22;3431;47.966;10.268;2023-09-18T00:26:29;16.60;99.90
6788;DHT22;3431;47.966;10.268;2023-09-18T00:26:51;16.70;99.90
6788;DHT22;3431;47.966;10.268;2023-09-18T00:27:16;16.70;99.90
6788;DHT22;3431;47.966;10.268;2023-09-18T00:27:37;16.70;99.90
6788;DHT22;3431;47.966;10.268;2023-09-18T00:27:59;16.70;99.90
6788;DHT22;3431;47.966;10.268;2023-09-18T00:28:20;16.70;99.90
6788;DHT22;3431;47.966;10.268;2023-09-18T00:28:44;16.60;99.90
6788;DHT22;3431;47.966;10.268;2023-09-18T00:29:05;16.60;99.90
6788;DHT22;3431;47.966;10.268;2023-09-18T00:29:27;16.60;99.90
6788;DHT22;3431;47.966;10.268;2023-09-18T00:29:49;16.60;99.90
6788;DHT22;3431;47.966;10.268;2023-09-18T00:30:11;16.60;99.90
6788;DHT22;3431;47.966;10.268;2023-09-18T00:30:33;16.60;99.90
6788;DHT22;3431;47.966;10.268;2023-09-18T00:30:55;16.60;99.90
6788;DHT22;3431;47.966;10.268;2023-09-18T00:31:18;16.60;99.90
6788;DHT22;3431;47.966;10.268;2023-09-18T00:31:39;16.60;99.90
6788;DHT22;3431;47.966;10.268;2023-09-18T00:32:01;16.60;99.90
6788;DHT22;3431;47.966;10.268;2023-09-18T00:32:23;16.60;99.90
6788;DHT22;3431;47.966;10.268;2023-09-18T00:32:45;16.60;99.90
6788;DHT22;3431;47.966;10.268;2023-09-18T00:33:08;16.60;99.90
6788;DHT22;3431;47.966;10.268;2023-09-18T00:33:29;16.60;99.90
6788;DHT22;3431;47.966;10.268;2023-09-18T00:33:51;16.60;99.90
6788;DHT22;3431;47.966;10.268;2023-09-18T00:34:12;16.60;99.90
6788;DHT22;3431;47.966;10.268;2023-09-18T00:34:35;16.70;99.90
6788;DHT22;3431;47.966;10.268;2023-09-18T00:34:56;16.70;99.90
6788;DHT22;3431;47.966;10.268;2023-09-18T00:35:18;16.70;99.90
6788;DHT22;3431;47.966;10.268;2023-09-18T00:35:39;16.70;99.90
6788;DHT22;3431;47.966;10.268;2023-09-18T00:36:01;16.70;99.90
6788;DHT22;3431;47.966;10.268;2023-09-18T00:36:24;16.70;99.90
6788;DHT22;3431;47.966;10.268;2023-09-18T00:36:45;16.70;99.90
6788;DHT22;3431;47.966;10.268;2023-09-18T00:37:07;16.70;99.90
6788;DHT22;3431;47.966;10.268;2023-09-18T00:37:28;16.70;99.90
6788;DHT22;3431;47.966;10.268;2023-09-18T00:37:50;16.70;99.90
6788;DHT22;3431;47.966;10.268;2023-09-18T00:38:13;16.70;99.90
6788;DHT22;3431;47.966;10.268;2023-09-18T00:38:34;16.70;99.90
6788;DHT22;3431;47.966;10.268;2023-09-18T00:38:56;16.70;99.90
6788;DHT22;3431;47.966;10.268;2023-09-18T00:39:17;16.70;99.90
6788;DHT22;3431;47.966;10.268;2023-09-18T00:39:39;17.50;99.90
6788;DHT22;3431;47.966;10.268;2023-09-18T00:40:01;16.70;99.90
6788;DHT22;3431;47.966;10.268;2023-09-18T00:40:23;16.70;99.90
6788;DHT22;3431;47.966;10.268;2023-09-18T00:40:45;16.70;99.90
6788;DHT22;3431;47.966;10.268;2023-09-18T00:41:07;16.70;99.90
6788;DHT22;3431;47.966;10.268;2023-09-18T00:41:28;16.70;99.90
6788;DHT22;3431;47.966;10.268;2023-09-18T00:41:50;16.70;99.90
6788;DHT22;3431;47.966;10.268;2023-09-18T00:42:16;16.70;99.90
6788;DHT22;3431;47.966;10.268;2023-09-18T00:42:40;16.70;99.90
6788;DHT22;3431;47.966;10.268;2023-09-18T00:43:01;16.70;99.90
6788;DHT22;3431;47.966;10.268;2023-09-18T00:43:23;16.70;99.90
6788;DHT22;3431;47.966;10.268;2023-09-18T00:43:45;16.70;99.90
6788;DHT22;3431;47.966;10.268;2023-09-18T00:44:07;16.70;99.90
6788;DHT22;3431;47.966;10.268;2023-09-18T00:44:29;16.70;99.90
6788;DHT22;3431;47.966;10.268;2023-09-18T00:44:50;16.70;99.90
6788;DHT22;3431;47.966;10.268;2023-09-18T00:45:12;16.70;99.90
6788;DHT22;3431;47.966;10.268;2023-09-18T00:45:34;16.70;99.90
6788;DHT22;3431;47.966;10.268;2023-09-18T00:45:59;16.70;99.90
6788;DHT22;3431;47.966;10.268;2023-09-18T00:46:21;16.70;99.90
6788;DHT22;3431;47.966;10.268;2023-09-18T00:46:43;16.70;99.90
6788;DHT22;3431;47.966;10.268;2023-09-18T00:47:05;16.70;99.90
6788;DHT22;3431;47.966;10.268;2023-09-18T00:47:28;16.60;99.90
6788;DHT22;3431;47.966;10.268;2023-09-18T00:47:49;16.60;99.90
6788;DHT22;3431;47.966;10.268;2023-09-18T00:48:12;16.60;99.90
6788;DHT22;3431;47.966;10.268;2023-09-18T00:48:35;16.60;99.90
6788;DHT22;3431;47.966;10.268;2023-09-18T00:48:57;16.60;99.90
6788;DHT22;3431;47.966;10.268;2023-09-18T00:49:19;16.60;99.90
6788;DHT22;3431;47.966;10.268;2023-09-18T00:49:44;16.50;99.90
6788;DHT22;3431;47.966;10.268;2023-09-18T00:50:11;16.50;99.90
6788;DHT22;3431;47.966;10.268;2023-09-18T00:50:34;16.50;99.90
6788;DHT22;3431;47.966;10.268;2023-09-18T00:50:57;16.40;99.90
6788;DHT22;3431;47.966;10.268;2023-09-18T00:51:19;16.40;99.90
6788;DHT22;3431;47.966;10.268;2023-09-18T00:51:40;16.40;99.90
6788;DHT22;3431;47.966;10.268;2023-09-18T00:52:04;16.40;99.90
6788;DHT22;3431;47.966;10.268;2023-09-18T00:52:26;16.40;99.90
6788;DHT22;3431;47.966;10.268;2023-09-18T00:52:49;16.40;99.90
6788;DHT22;3431;47.966;10.268;2023-09-18T00:53:14;16.30;99.90
6788;DHT22;3431;47.966;10.268;2023-09-18T00:53:37;16.30;99.90
6788;DHT22;3431;47.966;10.268;2023-09-18T00:53:59;16.30;99.90
6788;DHT22;3431;47.966;10.268;2023-09-18T00:54:22;16.20;99.90
6788;DHT22;3431;47.966;10.268;2023-09-18T00:54:44;16.20;99.90
6788;DHT22;3431;47.966;10.268;2023-09-18T00:55:08;16.10;99.90
6788;DHT22;3431;47.966;10.268;2023-09-18T00:55:31;16.10;99.90
6788;DHT22;3431;47.966;10.268;2023-09-18T00:55:55;16.00;99.90
6788;DHT22;3431;47.966;10.268;2023-09-18T00:56:18;16.00;99.90
6788;DHT22;3431;47.966;10.268;2023-09-18T00:56:41;16.00;99.90
6788;DHT22;3431;47.966;10.268;2023-09-18T00:57:04;16.00;99.90
6788;DHT22;3431;47.966;10.268;2023-09-18T00:57:28;16.00;99.90
6788;DHT22;3431;47.966;10.268;2023-09-18T00:57:50;16.00;99.90
6788;DHT22;3431;47.966;10.268;2023-09-18T00:58:12;16.00;99.90
6788;DHT22;3431;47.966;10.268;2023-09-18T00:58:34;16.00;99.90
6788;DHT22;3431;47.966;10.268;2023-09-18T00:58:56;16.00;99.90
6788;DHT22;3431;47.966;10.268;2023-09-18T00:59:18;16.00;99.90
6788;DHT22;3431;47.966;10.268;2023-09-18T00:59:39;16.00;99.90
6788;DHT22;3431;47.966;10.268;2023-09-18T01:00:02;16.00;99.90
6788;DHT22;3431;47.966;10.268;2023-09-18T01:00:26;16.00;99.90
6788;DHT22;3431;47.966;10.268;2023-09-18T01:00:48;16.00;99.90
6788;DHT22;3431;47.966;10.268;2023-09-18T01:01:12;16.00;99.90
6788;DHT22;3431;47.966;10.268;2023-09-18T01:01:35;16.00;99.90
6788;DHT22;3431;47.966;10.268;2023-09-18T01:01:57;16.00;99.90
6788;DHT22;3431;47.966;10.268;2023-09-18T01:02:20;16.10;99.90
6788;DHT22;3431;47.966;10.268;2023-09-18T01:02:42;16.10;99.90
6788;DHT22;3431;47.966;10.268;2023-09-18T01:03:04;16.10;99.90
6788;DHT22;3431;47.966;10.268;2023-09-18T01:03:26;16.10;99.90
6788;DHT22;3431;47.966;10.268;2023-09-18T01:03:49;16.10;99.90
6788;DHT22;3431;47.966;10.268;2023-09-18T01:04:12;16.10;99.90
6788;DHT22;3431;47.966;10.268;2023-09-18T01:04:34;16.10;99.90
6788;DHT22;3431;47.966;10.268;2023-09-18T01:04:56;16.20;99.90
6788;DHT22;3431;47.966;10.268;2023-09-18T01:05:17;16.20;99.90
6788;DHT22;3431;47.966;10.268;2023-09-18T01:05:41;16.20;99.90
6788;DHT22;3431;47.966;10.268;2023-09-18T01:06:03;16.20;99.90
6788;DHT22;3431;47.966;10.268;2023-09-18T01:06:25;16.20;99.90
6788;DHT22;3431;47.966;10.268;2023-09-18T01:06:49;16.20;99.90
6788;DHT22;3431;47.966;10.268;2023-09-18T01:07:10;16.20;99.90
6788;DHT22;3431;47.966;10.268;2023-09-18T01:07:32;16.20;99.90
6788;DHT22;3431;47.966;10.268;2023-09-18T01:07:54;16.20;99.90
6788;DHT22;3431;47.966;10.268;2023-09-18T01:08:16;16.20;99.90
6788;DHT22;3431;47.966;10.268;2023-09-18T01:08:38;16.20;99.90
6788;DHT22;3431;47.966;10.268;2023-09-18T01:09:02;16.20;99.90
6788;DHT22;3431;47.966;10.268;2023-09-18T01:09:26;16.20;99.90
6788;DHT22;3431;47.966;10.268;2023-09-18T01:09:48;16.20;99.90
6788;DHT22;3431;47.966;10.268;2023-09-18T01:10:10;16.20;99.90
6788;DHT22;3431;47.966;10.268;2023-09-18T01:10:35;16.20;99.90
6788;DHT22;3431;47.966;10.268;2023-09-18T01:11:04;16.30;99.90
6788;DHT22;3431;47.966;10.268;2023-09-18T01:11:34;16.30;99.90
6788;DHT22;3431;47.966;10.268;2023-09-18T01:12:04;16.30;99.90
6788;DHT22;3431;47.966;10.268;2023-09-18T01:12:39;16.30;99.90
6788;DHT22;3431;47.966;10.268;2023-09-18T01:13:04;16.90;99.90
6788;DHT22;3431;47.966;10.268;2023-09-18T01:13:37;16.30;99.90
6788;DHT22;3431;47.966;10.268;2023-09-18T01:14:09;16.30;99.90
6788;DHT22;3431;47.966;10.268;2023-09-18T01:14:40;16.40;99.90
6788;DHT22;3431;47.966;10.268;2023-09-18T01:15:07;16.30;99.90
6788;DHT22;3431;47.966;10.268;2023-09-18T01:15:35;16.40;99.90
6788;DHT22;3431;47.966;10.268;2023-09-18T01:16:06;16.30;99.90
6788;DHT22;3431;47.966;10.268;2023-09-18T01:16:34;16.30;99.90
6788;DHT22;3431;47.966;10.268;2023-09-18T01:16:58;16.30;99.90
6788;DHT22;3431;47.966;10.268;2023-09-18T01:17:20;16.30;99.90
6788;DHT22;3431;47.966;10.268;2023-09-18T01:17:43;16.30;99.90
6788;DHT22;3431;47.966;10.268;2023-09-18T01:18:08;16.30;99.90
6788;DHT22;3431;47.966;10.268;2023-09-18T01:18:30;16.30;99.90
6788;DHT22;3431;47.966;10.268;2023-09-18T01:18:51;16.40;99.90
6788;DHT22;3431;47.966;10.268;2023-09-18T01:19:13;16.40;99.90
6788;DHT22;3431;47.966;10.268;2023-09-18T01:19:36;16.40;99.90
6788;DHT22;3431;47.966;10.268;2023-09-18T01:19:58;16.40;99.90
6788;DHT22;3431;47.966;10.268;2023-09-18T01:20:20;16.40;99.90
6788;DHT22;3431;47.966;10.268;2023-09-18T01:20:43;16.40;99.90
6788;DHT22;3431;47.966;10.268;2023-09-18T01:21:05;16.40;99.90
6788;DHT22;3431;47.966;10.268;2023-09-18T01:21:26;16.40;99.90
6788;DHT22;3431;47.966;10.268;2023-09-18T01:21:48;16.40;99.90
6788;DHT22;3431;47.966;10.268;2023-09-18T01:22:10;16.40;99.90
6788;DHT22;3431;47.966;10.268;2023-09-18T01:22:34;16.50;99.90
6788;DHT22;3431;47.966;10.268;2023-09-18T01:22:55;16.50;99.90
6788;DHT22;3431;47.966;10.268;2023-09-18T01:23:17;16.50;99.90
6788;DHT22;3431;47.966;10.268;2023-09-18T01:23:39;16.50;99.90
6788;DHT22;3431;47.966;10.268;2023-09-18T01:24:00;16.50;99.90
6788;DHT22;3431;47.966;10.268;2023-09-18T01:24:22;16.50;99.90
6788;DHT22;3431;47.966;10.268;2023-09-18T01:24:45;16.50;99.90
6788;DHT22;3431;47.966;10.268;2023-09-18T01:25:08;16.50;99.90
6788;DHT22;3431;47.966;10.268;2023-09-18T01:25:30;16.50;99.90
6788;DHT22;3431;47.966;10.268;2023-09-18T01:25:53;16.50;99.90
6788;DHT22;3431;47.966;10.268;2023-09-18T01:26:15;16.50;99.90
6788;DHT22;3431;47.966;10.268;2023-09-18T01:26:37;16.50;99.90
6788;DHT22;3431;47.966;10.268;2023-09-18T01:27:00;16.50;99.90
6788;DHT22;3431;47.966;10.268;2023-09-18T01:27:21;16.50;99.90
6788;DHT22;3431;47.966;10.268;2023-09-18T01:27:43;16.50;99.90
6788;DHT22;3431;47.966;10.268;2023-09-18T01:28:04;16.50;99.90
6788;DHT22;3431;47.966;10.268;2023-09-18T01:28:27;16.50;99.90
6788;DHT22;3431;47.966;10.268;2023-09-18T01:28:48;16.50;99.90
6788;DHT22;3431;47.966;10.268;2023-09-18T01:29:10;16.50;99.90
6788;DHT22;3431;47.966;10.268;2023-09-18T01:29:31;16.50;99.90
6788;DHT22;3431;47.966;10.268;2023-09-18T01:29:53;16.50;99.90
6788;DHT22;3431;47.966;10.268;2023-09-18T01:30:18;16.50;99.90
6788;DHT22;3431;47.966;10.268;2023-09-18T01:30:40;16.50;99.90
6788;DHT22;3431;47.966;10.268;2023-09-18T01:31:01;16.50;99.90
6788;DHT22;3431;47.966;10.268;2023-09-18T01:31:23;16.50;99.90
6788;DHT22;3431;47.966;10.268;2023-09-18T01:31:46;16.50;99.90
6788;DHT22;3431;47.966;10.268;2023-09-18T01:32:09;16.50;99.90
6788;DHT22;3431;47.966;10.268;2023-09-18T01:32:33;16.50;99.90
6788;DHT22;3431;47.966;10.268;2023-09-18T01:32:57;16.50;99.90
6788;DHT22;3431;47.966;10.268;2023-09-18T01:33:20;16.50;99.90
6788;DHT22;3431;47.966;10.268;2023-09-18T01:33:44;16.50;99.90
6788;DHT22;3431;47.966;10.268;2023-09-18T01:34:08;16.50;99.90
6788;DHT22;3431;47.966;10.268;2023-09-18T01:34:33;16.50;99.90
6788;DHT22;3431;47.966;10.268;2023-09-18T01:34:56;16.50;99.90
6788;DHT22;3431;47.966;10.268;2023-09-18T01:35:18;16.50;99.90
6788;DHT22;3431;47.966;10.268;2023-09-18T01:35:40;16.50;99.90
6788;DHT22;3431;47.966;10.268;2023-09-18T01:36:03;16.50;99.90
6788;DHT22;3431;47.966;10.268;2023-09-18T01:36:27;16.50;99.90
6788;DHT22;3431;47.966;10.268;2023-09-18T01:36:50;16.50;99.90
6788;DHT22;3431;47.966;10.268;2023-09-18T01:37:15;16.70;99.90
6788;DHT22;3431;47.966;10.268;2023-09-18T01:37:39;16.50;99.90
6788;DHT22;3431;47.966;10.268;2023-09-18T01:38:02;16.50;99.90
6788;DHT22;3431;47.966;10.268;2023-09-18T01:38:24;16.50;99.90
6788;DHT22;3431;47.966;10.268;2023-09-18T01:38:47;16.60;99.90
6788;DHT22;3431;47.966;10.268;2023-09-18T01:39:10;16.60;99.90
6788;DHT22;3431;47.966;10.268;2023-09-18T01:39:33;16.60;99.90
6788;DHT22;3431;47.966;10.268;2023-09-18T01:39:57;16.60;99.90
6788;DHT22;3431;47.966;10.268;2023-09-18T01:40:20;16.60;99.90
6788;DHT22;3431;47.966;10.268;2023-09-18T01:40:42;16.60;99.90
6788;DHT22;3431;47.966;10.268;2023-09-18T01:41:04;16.60;99.90
6788;DHT22;3431;47.966;10.268;2023-09-18T01:41:26;16.60;99.90
6788;DHT22;3431;47.966;10.268;2023-09-18T01:41:49;16.60;99.90
6788;DHT22;3431;47.966;10.268;2023-09-18T01:42:11;16.60;99.90
6788;DHT22;3431;47.966;10.268;2023-09-18T01:42:33;16.60;99.90
6788;DHT22;3431;47.966;10.268;2023-09-18T01:42:55;16.60;99.90
6788;DHT22;3431;47.966;10.268;2023-09-18T01:43:17;16.50;99.90
6788;DHT22;3431;47.966;10.268;2023-09-18T01:43:39;16.60;99.90
6788;DHT22;3431;47.966;10.268;2023-09-18T01:44:01;16.60;99.90
6788;DHT22;3431;47.966;10.268;2023-09-18T01:44:23;16.60;99.90
6788;DHT22;3431;47.966;10.268;2023-09-18T01:44:46;16.60;99.90
6788;DHT22;3431;47.966;10.268;2023-09-18T01:45:09;16.30;99.90
6788;DHT22;3431;47.966;10.268;2023-09-18T01:45:31;16.60;99.90
6788;DHT22;3431;47.966;10.268;2023-09-18T01:45:55;16.60;99.90
6788;DHT22;3431;47.966;10.268;2023-09-18T01:46:17;16.50;99.90
6788;DHT22;3431;47.966;10.268;2023-09-18T01:46:39;16.60;99.90
6788;DHT22;3431;47.966;10.268;2023-09-18T01:47:03;16.60;99.90
6788;DHT22;3431;47.966;10.268;2023-09-18T01:47:27;16.60;99.90
6788;DHT22;3431;47.966;10.268;2023-09-18T01:47:48;16.60;99.90
6788;DHT22;3431;47.966;10.268;2023-09-18T01:48:10;16.60;99.90
6788;DHT22;3431;47.966;10.268;2023-09-18T01:48:31;16.50;99.90
6788;DHT22;3431;47.966;10.268;2023-09-18T01:48:54;16.50;99.90
6788;DHT22;3431;47.966;10.268;2023-09-18T01:49:16;16.50;99.90
6788;DHT22;3431;47.966;10.268;2023-09-18T01:49:38;16.50;99.90
6788;DHT22;3431;47.966;10.268;2023-09-18T01:50:03;16.50;99.90
6788;DHT22;3431;47.966;10.268;2023-09-18T01:50:26;16.50;99.90
6788;DHT22;3431;47.966;10.268;2023-09-18T01:50:48;16.50;99.90
6788;DHT22;3431;47.966;10.268;2023-09-18T01:51:09;16.50;99.90
6788;DHT22;3431;47.966;10.268;2023-09-18T01:51:35;16.50;99.90
6788;DHT22;3431;47.966;10.268;2023-09-18T01:51:57;16.50;99.90
6788;DHT22;3431;47.966;10.268;2023-09-18T01:52:19;16.50;99.90
6788;DHT22;3431;47.966;10.268;2023-09-18T01:52:42;16.50;99.90
6788;DHT22;3431;47.966;10.268;2023-09-18T01:53:04;16.50;99.90
6788;DHT22;3431;47.966;10.268;2023-09-18T01:53:25;16.50;99.90
6788;DHT22;3431;47.966;10.268;2023-09-18T01:53:47;16.50;99.90
6788;DHT22;3431;47.966;10.268;2023-09-18T01:54:09;16.40;99.90
6788;DHT22;3431;47.966;10.268;2023-09-18T01:54:30;16.40;99.90
6788;DHT22;3431;47.966;10.268;2023-09-18T01:54:52;16.40;99.90
6788;DHT22;3431;47.966;10.268;2023-09-18T01:55:15;16.30;99.90
6788;DHT22;3431;47.966;10.268;2023-09-18T01:55:36;16.20;99.90
6788;DHT22;3431;47.966;10.268;2023-09-18T01:55:58;16.20;99.90
6788;DHT22;3431;47.966;10.268;2023-09-18T01:56:19;16.10;99.90
6788;DHT22;3431;47.966;10.268;2023-09-18T01:56:41;16.00;99.90
6788;DHT22;3431;47.966;10.268;2023-09-18T01:57:04;16.00;99.90
6788;DHT22;3431;47.966;10.268;2023-09-18T01:57:25;15.90;99.90
6788;DHT22;3431;47.966;10.268;2023-09-18T01:57:47;15.80;99.90
6788;DHT22;3431;47.966;10.268;2023-09-18T01:58:09;15.80;99.90
6788;DHT22;3431;47.966;10.268;2023-09-18T01:58:30;15.70;99.90
6788;DHT22;3431;47.966;10.268;2023-09-18T01:58:52;15.70;99.90
6788;DHT22;3431;47.966;10.268;2023-09-18T01:59:14;15.60;99.90
6788;DHT22;3431;47.966;10.268;2023-09-18T01:59:36;15.60;99.90
6788;DHT22;3431;47.966;10.268;2023-09-18T01:59:57;15.50;99.90
6788;DHT22;3431;47.966;10.268;2023-09-18T02:00:19;15.50;99.90
6788;DHT22;3431;47.966;10.268;2023-09-18T02:00:42;15.40;99.90
6788;DHT22;3431;47.966;10.268;2023-09-18T02:01:03;15.40;99.90
6788;DHT22;3431;47.966;10.268;2023-09-18T02:01:25;15.40;99.90
6788;DHT22;3431;47.966;10.268;2023-09-18T02:01:47;15.30;99.90
6788;DHT22;3431;47.966;10.268;2023-09-18T02:02:09;15.30;99.90
6788;DHT22;3431;47.966;10.268;2023-09-18T02:02:34;15.30;99.90
6788;DHT22;3431;47.966;10.268;2023-09-18T02:02:57;15.30;99.90
6788;DHT22;3431;47.966;10.268;2023-09-18T02:03:19;15.30;99.90
6788;DHT22;3431;47.966;10.268;2023-09-18T02:03:42;15.30;99.90
6788;DHT22;3431;47.966;10.268;2023-09-18T02:04:04;15.30;99.90
6788;DHT22;3431;47.966;10.268;2023-09-18T02:04:26;15.30;99.90
6788;DHT22;3431;47.966;10.268;2023-09-18T02:04:48;15.40;99.90
6788;DHT22;3431;47.966;10.268;2023-09-18T02:05:10;15.30;99.90
6788;DHT22;3431;47.966;10.268;2023-09-18T02:05:32;15.40;99.90
6788;DHT22;3431;47.966;10.268;2023-09-18T02:05:53;15.30;99.90
6788;DHT22;3431;47.966;10.268;2023-09-18T02:06:15;15.30;99.90
6788;DHT22;3431;47.966;10.268;2023-09-18T02:06:37;15.30;99.90
6788;DHT22;3431;47.966;10.268;2023-09-18T02:06:58;15.40;99.90
6788;DHT22;3431;47.966;10.268;2023-09-18T02:07:21;15.40;99.90
6788;DHT22;3431;47.966;10.268;2023-09-18T02:07:43;15.40;99.90
6788;DHT22;3431;47.966;10.268;2023-09-18T02:08:05;15.40;99.90
6788;DHT22;3431;47.966;10.268;2023-09-18T02:08:26;15.40;99.90
6788;DHT22;3431;47.966;10.268;2023-09-18T02:08:48;15.50;99.90
6788;DHT22;3431;47.966;10.268;2023-09-18T02:09:11;15.40;99.90
6788;DHT22;3431;47.966;10.268;2023-09-18T02:09:32;15.50;99.90
6788;DHT22;3431;47.966;10.268;2023-09-18T02:09:54;15.50;99.90
6788;DHT22;3431;47.966;10.268;2023-09-18T02:10:16;15.50;99.90
6788;DHT22;3431;47.966;10.268;2023-09-18T02:10:38;15.50;99.90
6788;DHT22;3431;47.966;10.268;2023-09-18T02:11:00;15.50;99.90
6788;DHT22;3431;47.966;10.268;2023-09-18T02:11:21;15.50;99.90
6788;DHT22;3431;47.966;10.268;2023-09-18T02:11:46;15.60;99.90
6788;DHT22;3431;47.966;10.268;2023-09-18T02:12:08;15.60;99.90
6788;DHT22;3431;47.966;10.268;2023-09-18T02:12:29;15.60;99.90
6788;DHT22;3431;47.966;10.268;2023-09-18T02:12:52;15.60;99.90
6788;DHT22;3431;47.966;10.268;2023-09-18T02:13:13;15.60;99.90
6788;DHT22;3431;47.966;10.268;2023-09-18T02:13:35;15.60;99.90
6788;DHT22;3431;47.966;10.268;2023-09-18T02:13:57;15.60;99.90
6788;DHT22;3431;47.966;10.268;2023-09-18T02:14:18;15.70;99.90
6788;DHT22;3431;47.966;10.268;2023-09-18T02:14:41;15.70;99.90
6788;DHT22;3431;47.966;10.268;2023-09-18T02:15:05;15.70;99.90
6788;DHT22;3431;47.966;10.268;2023-09-18T02:15:28;15.70;99.90
6788;DHT22;3431;47.966;10.268;2023-09-18T02:15:52;15.70;99.90
6788;DHT22;3431;47.966;10.268;2023-09-18T02:16:14;15.70;99.90
6788;DHT22;3431;47.966;10.268;2023-09-18T02:16:38;15.70;99.90
6788;DHT22;3431;47.966;10.268;2023-09-18T02:17:02;15.70;99.90
6788;DHT22;3431;47.966;10.268;2023-09-18T02:17:24;15.80;99.90
6788;DHT22;3431;47.966;10.268;2023-09-18T02:17:45;15.80;99.90
6788;DHT22;3431;47.966;10.268;2023-09-18T02:18:08;15.80;99.90
6788;DHT22;3431;47.966;10.268;2023-09-18T02:18:31;15.80;99.90
6788;DHT22;3431;47.966;10.268;2023-09-18T02:18:54;15.80;99.90
6788;DHT22;3431;47.966;10.268;2023-09-18T02:19:16;15.80;99.90
6788;DHT22;3431;47.966;10.268;2023-09-18T02:19:39;15.80;99.90
6788;DHT22;3431;47.966;10.268;2023-09-18T02:20:00;15.80;99.90
6788;DHT22;3431;47.966;10.268;2023-09-18T02:20:26;15.80;99.90
6788;DHT22;3431;47.966;10.268;2023-09-18T02:20:47;15.80;99.90
6788;DHT22;3431;47.966;10.268;2023-09-18T02:21:10;15.80;99.90
6788;DHT22;3431;47.966;10.268;2023-09-18T02:21:32;15.80;99.90
6788;DHT22;3431;47.966;10.268;2023-09-18T02:21:56;15.80;99.90
6788;DHT22;3431;47.966;10.268;2023-09-18T02:22:18;15.80;99.90
6788;DHT22;3431;47.966;10.268;2023-09-18T02:22:40;15.80;99.90
6788;DHT22;3431;47.966;10.268;2023-09-18T02:23:03;15.80;99.90
6788;DHT22;3431;47.966;10.268;2023-09-18T02:23:25;15.80;99.90
6788;DHT22;3431;47.966;10.268;2023-09-18T02:23:49;15.80;99.90
6788;DHT22;3431;47.966;10.268;2023-09-18T02:24:11;15.80;99.90
6788;DHT22;3431;47.966;10.268;2023-09-18T02:24:33;15.80;99.90
6788;DHT22;3431;47.966;10.268;2023-09-18T02:24:55;15.80;99.90